createdAt,value
2023-08-18T00:03:41.385Z,99.90
2023-08-18T00:08:43.141Z,99.90
2023-08-18T00:13:44.872Z,99.90
2023-08-18T00:18:47.971Z,99.90
2023-08-18T00:23:49.638Z,99.90
2023-08-18T00:28:51.374Z,99.90
2023-08-18T00:33:54.454Z,99.90
2023-08-18T00:38:56.122Z,99.90
2023-08-18T00:43:57.802Z,99.90
2023-08-18T00:49:05.424Z,99.90
2023-08-18T00:54:07.913Z,99.90
2023-08-18T00:59:10.020Z,99.90
2023-08-18T01:04:13.936Z,99.90
2023-08-18T01:09:15.700Z,99.90
2023-08-18T01:14:27.238Z,99.90
2023-08-18T01:19:31.018Z,99.90
2023-08-18T01:24:34.201Z,99.90
2023-08-18T01:29:36.318Z,99.90
2023-08-18T01:34:42.688Z,99.90
2023-08-18T01:39:47.187Z,99.90
2023-08-18T01:44:48.966Z,99.90
2023-08-18T01:49:50.677Z,99.90
2023-08-18T01:54:53.703Z,99.90
2023-08-18T01:59:55.561Z,99.90
2023-08-18T02:04:57.418Z,99.90
2023-08-18T02:10:00.638Z,99.90
2023-08-18T02:15:02.400Z,99.90
2023-08-18T02:20:04.945Z,99.90
2023-08-18T02:25:08.761Z,99.90
2023-08-18T02:30:11.010Z,99.90
2023-08-18T02:35:12.835Z,99.90
2023-08-18T02:40:16.072Z,99.90
2023-08-18T02:45:17.818Z,99.90
2023-08-18T02:50:19.555Z,99.90
2023-08-18T02:55:22.707Z,99.90
2023-08-18T03:00:24.422Z,99.90
2023-08-18T03:05:26.422Z,99.90
2023-08-18T03:10:29.480Z,99.90
2023-08-18T03:15:31.460Z,99.90
2023-08-18T03:20:33.622Z,99.90
2023-08-18T03:25:36.784Z,99.90
2023-08-18T03:30:39.112Z,99.90
2023-08-18T03:35:40.789Z,99.90
2023-08-18T03:40:43.814Z,99.90
2023-08-18T03:45:46.963Z,99.90
2023-08-18T03:50:48.758Z,99.90
2023-08-18T03:55:52.594Z,99.90
2023-08-18T04:01:02.183Z,99.90
2023-08-18T04:06:04.561Z,99.90
2023-08-18T04:11:07.674Z,99.90
2023-08-18T04:16:09.447Z,99.90
2023-08-18T04:21:11.150Z,99.90
2023-08-18T04:26:14.216Z,99.90
2023-08-18T04:31:15.952Z,99.90
2023-08-18T04:36:17.719Z,99.90
2023-08-18T04:41:20.842Z,99.90
2023-08-18T04:46:22.584Z,99.90
2023-08-18T04:51:24.403Z,99.90
2023-08-18T04:56:27.511Z,99.90
2023-08-18T05:01:29.265Z,99.90
2023-08-18T05:06:31.012Z,99.90
2023-08-18T05:11:34.171Z,99.90
2023-08-18T05:16:35.914Z,99.90
2023-08-18T05:21:37.678Z,99.90
2023-08-18T05:26:40.742Z,99.90
2023-08-18T05:31:42.480Z,99.90
2023-08-18T05:36:44.221Z,99.90
2023-08-18T05:41:47.258Z,99.90
2023-08-18T05:46:49.034Z,99.90
2023-08-18T05:51:50.702Z,99.90
2023-08-18T05:56:53.810Z,99.90
2023-08-18T06:01:55.528Z,99.90
2023-08-18T06:06:57.221Z,99.90
2023-08-18T06:12:00.532Z,99.90
2023-08-18T06:17:02.269Z,99.90
2023-08-18T06:22:04.102Z,99.90
2023-08-18T06:27:07.174Z,99.90
2023-08-18T06:32:08.878Z,99.90
2023-08-18T06:37:10.744Z,99.90
2023-08-18T06:42:14.077Z,99.90
2023-08-18T06:47:15.882Z,99.90
2023-08-18T06:52:17.593Z,99.90
2023-08-18T06:57:20.628Z,99.90
2023-08-18T07:02:22.417Z,99.90
2023-08-18T07:07:24.141Z,99.90
2023-08-18T07:12:27.596Z,99.90
2023-08-18T07:17:29.549Z,99.90
2023-08-18T07:22:31.508Z,99.90
2023-08-18T07:27:34.730Z,99.90
2023-08-18T07:32:36.476Z,99.90
2023-08-18T07:37:54.832Z,99.90
2023-08-18T07:42:59.285Z,99.90
2023-08-18T07:48:01.068Z,99.90
2023-08-18T07:53:02.794Z,99.90
2023-08-18T07:58:06.090Z,99.90
2023-08-18T08:03:07.917Z,99.90
2023-08-18T08:08:11.375Z,99.90
2023-08-18T08:13:14.444Z,99.90
2023-08-18T08:18:16.997Z,99.90
2023-08-18T08:23:18.866Z,99.90
2023-08-18T08:28:23.285Z,99.90
2023-08-18T08:33:25.218Z,99.90
2023-08-18T08:38:26.947Z,99.90
2023-08-18T08:43:30.116Z,99.90
2023-08-18T08:48:38.157Z,99.90
2023-08-18T08:53:41.259Z,99.90
2023-08-18T08:58:44.884Z,99.90
2023-08-18T09:03:48.325Z,99.90
2023-08-18T09:08:50.075Z,99.90
2023-08-18T09:13:59.192Z,99.90
2023-08-18T09:19:02.183Z,99.90
2023-08-18T09:24:05.131Z,99.90
2023-08-18T09:29:10.031Z,99.30
2023-08-18T09:34:19.645Z,99.70
2023-08-18T09:39:21.763Z,99.90
2023-08-18T09:44:24.854Z,99.90
2023-08-18T09:49:27.205Z,98.60
2023-08-18T09:54:29.630Z,99.90
2023-08-18T09:59:37.750Z,97.50
2023-08-18T10:04:40.157Z,98.90
2023-08-18T10:09:43.173Z,95.40
2023-08-18T10:14:47.506Z,98.40
2023-08-18T10:19:51.568Z,97.00
2023-08-18T10:24:54.743Z,95.30
2023-08-18T10:30:00.399Z,95.20
2023-08-18T10:35:19.383Z,95.50
2023-08-18T10:40:29.391Z,93.60
2023-08-18T10:45:33.233Z,92.10
2023-08-18T10:50:36.608Z,92.90
2023-08-18T10:55:38.329Z,94.60
2023-08-18T11:00:41.974Z,93.50
2023-08-18T11:05:43.904Z,92.70
2023-08-18T11:10:45.909Z,89.10
2023-08-18T11:15:49.614Z,91.00
2023-08-18T11:20:52.666Z,91.50
2023-08-18T11:25:54.986Z,90.80
2023-08-18T11:30:58.120Z,90.20
2023-08-18T11:35:59.840Z,90.90
2023-08-18T11:41:01.536Z,90.00
2023-08-18T11:46:04.699Z,87.50
2023-08-18T11:51:06.359Z,87.50
2023-08-18T11:56:08.088Z,88.40
2023-08-18T12:01:11.161Z,89.50
2023-08-18T12:06:23.086Z,85.80
2023-08-18T12:11:24.812Z,89.00
2023-08-18T12:16:27.898Z,86.80
2023-08-18T12:21:29.616Z,86.20
2023-08-18T12:26:31.462Z,83.30
2023-08-18T12:31:34.605Z,85.10
2023-08-18T12:36:36.366Z,85.70
2023-08-18T12:41:38.112Z,83.00
2023-08-18T12:46:41.230Z,85.10
2023-08-18T12:51:42.991Z,82.90
2023-08-18T12:56:44.705Z,85.50
2023-08-18T13:01:47.796Z,81.10
2023-08-18T13:06:49.565Z,84.50
2023-08-18T13:11:51.356Z,80.40
2023-08-18T13:16:59.046Z,82.70
2023-08-18T13:22:01.618Z,83.90
2023-08-18T13:27:03.709Z,83.60
2023-08-18T13:32:07.280Z,81.30
2023-08-18T13:37:09.016Z,81.70
2023-08-18T13:42:10.810Z,83.20
2023-08-18T13:47:14.039Z,81.50
2023-08-18T13:52:15.708Z,81.40
2023-08-18T13:57:17.481Z,81.00
2023-08-18T14:02:20.582Z,83.20
2023-08-18T14:07:22.281Z,82.00
2023-08-18T14:12:24.161Z,78.00
2023-08-18T14:17:37.799Z,80.00
2023-08-18T14:22:39.562Z,80.90
2023-08-18T14:27:41.349Z,79.60
2023-08-18T14:32:44.742Z,81.10
2023-08-18T14:37:46.483Z,79.90
2023-08-18T14:42:48.169Z,79.80
2023-08-18T14:47:51.299Z,77.20
2023-08-18T14:52:53.025Z,79.20
2023-08-18T14:57:54.767Z,75.20
2023-08-18T15:02:57.860Z,79.40
2023-08-18T15:07:59.609Z,76.60
2023-08-18T15:13:01.332Z,76.00
2023-08-18T15:18:05.489Z,76.90
2023-08-18T15:23:07.245Z,74.00
2023-08-18T15:28:08.960Z,78.00
2023-08-18T15:33:12.043Z,72.40
2023-08-18T15:38:14.015Z,75.40
2023-08-18T15:43:15.729Z,74.30
2023-08-18T15:48:18.841Z,72.90
2023-08-18T15:53:20.529Z,75.80
2023-08-18T15:58:23.014Z,79.60
2023-08-18T16:03:26.587Z,76.10
2023-08-18T16:08:28.311Z,76.40
2023-08-18T16:13:30.023Z,76.30
2023-08-18T16:18:33.091Z,71.70
2023-08-18T16:23:34.892Z,80.90
2023-08-18T16:28:39.299Z,82.50
2023-08-18T16:33:43.017Z,83.20
2023-08-18T16:38:44.876Z,80.10
2023-08-18T16:43:46.634Z,77.80
2023-08-18T16:48:49.657Z,78.60
2023-08-18T16:53:51.392Z,76.20
2023-08-18T16:58:53.104Z,81.20
2023-08-18T17:03:56.164Z,82.30
2023-08-18T17:08:57.901Z,82.50
2023-08-18T17:13:59.603Z,78.80
2023-08-18T17:19:02.772Z,85.20
2023-08-18T17:24:04.970Z,90.00
2023-08-18T17:29:06.718Z,89.60
2023-08-18T17:34:09.796Z,92.70
2023-08-18T17:39:11.566Z,92.70
2023-08-18T17:44:13.392Z,93.70
2023-08-18T17:49:16.477Z,97.10
2023-08-18T17:54:18.242Z,96.80
2023-08-18T17:59:19.916Z,99.60
2023-08-18T18:04:22.980Z,99.90
2023-08-18T18:09:24.810Z,99.90
2023-08-18T18:14:26.576Z,99.90
2023-08-18T18:19:29.687Z,99.90
2023-08-18T18:24:31.382Z,99.90
2023-08-18T18:29:33.117Z,99.90
2023-08-18T18:34:36.465Z,99.90
2023-08-18T18:39:38.271Z,99.90
2023-08-18T18:44:39.980Z,99.90
2023-08-18T18:49:43.181Z,99.90
2023-08-18T18:54:44.978Z,99.90
2023-08-18T18:59:46.681Z,99.90
2023-08-18T19:04:49.818Z,99.90
2023-08-18T19:09:51.533Z,99.90
2023-08-18T19:14:53.358Z,99.90
2023-08-18T19:19:59.431Z,99.90
2023-08-18T19:25:01.182Z,99.90
2023-08-18T19:30:03.283Z,99.90
2023-08-18T19:35:07.296Z,99.90
2023-08-18T19:40:10.272Z,99.90
2023-08-18T19:45:12.338Z,99.90
2023-08-18T19:50:15.394Z,99.90
2023-08-18T19:55:17.277Z,99.90
2023-08-18T20:00:19.018Z,99.90
2023-08-18T20:05:22.199Z,99.90
2023-08-18T20:10:23.991Z,99.90
2023-08-18T20:15:25.940Z,99.90
2023-08-18T20:20:29.112Z,99.90
2023-08-18T20:25:30.829Z,99.90
2023-08-18T20:30:32.557Z,99.90
2023-08-18T20:35:35.618Z,99.90
2023-08-18T20:40:37.349Z,99.90
2023-08-18T20:45:39.213Z,99.90
2023-08-18T20:50:42.282Z,99.90
2023-08-18T20:55:44.006Z,99.90
2023-08-18T21:00:45.802Z,99.90
2023-08-18T21:05:48.904Z,99.90
2023-08-18T21:10:50.636Z,99.90
2023-08-18T21:15:52.494Z,99.90
2023-08-18T21:20:55.953Z,99.90
2023-08-18T21:25:58.858Z,99.90
2023-08-18T21:31:00.990Z,99.90
2023-08-18T21:36:04.351Z,99.90
2023-08-18T21:41:06.093Z,99.90
2023-08-18T21:46:07.933Z,99.90
2023-08-18T21:51:11.069Z,99.90
2023-08-18T21:56:12.854Z,99.90
2023-08-18T22:01:14.639Z,99.90
2023-08-18T22:06:17.734Z,99.90
2023-08-18T22:11:19.515Z,99.90
2023-08-18T22:16:21.302Z,99.90
2023-08-18T22:21:24.563Z,99.90
2023-08-18T22:26:26.419Z,99.90
2023-08-18T22:31:28.153Z,99.90
2023-08-18T22:36:31.333Z,99.90
2023-08-18T22:41:33.072Z,99.90
2023-08-18T22:46:34.809Z,99.90
2023-08-18T22:51:37.884Z,99.90
2023-08-18T22:56:39.644Z,99.90
2023-08-18T23:01:41.375Z,99.90
2023-08-18T23:06:44.419Z,99.90
2023-08-18T23:11:46.381Z,99.90
2023-08-18T23:16:48.293Z,99.90
2023-08-18T23:21:51.335Z,99.90
2023-08-18T23:26:53.053Z,99.90
2023-08-18T23:31:54.734Z,99.90
2023-08-18T23:36:57.890Z,99.90
2023-08-18T23:41:59.559Z,99.90
2023-08-18T23:47:01.268Z,99.90
2023-08-18T23:52:04.637Z,99.90
2023-08-18T23:57:06.315Z,99.90
